sensor_id;sensor_type;location;lat;lon;timestamp;P1;durP1;ratioP1;P2;durP2;ratioP2
21630;SDS011;10977;46.802;11.952;2022-10-22T00:01:46;22.17;;;15.73;;
21630;SDS011;10977;46.802;11.952;2022-10-22T00:04:12;25.48;;;16.35;;
21630;SDS011;10977;46.802;11.952;2022-10-22T00:06:37;21.95;;;15.18;;
21630;SDS011;10977;46.802;11.952;2022-10-22T00:09:03;19.85;;;14.45;;
21630;SDS011;10977;46.802;11.952;2022-10-22T00:11:28;23.02;;;15.40;;
21630;SDS011;10977;46.802;11.952;2022-10-22T00:13:54;22.00;;;14.85;;
21630;SDS011;10977;46.802;11.952;2022-10-22T00:16:19;25.48;;;14.50;;
21630;SDS011;10977;46.802;11.952;2022-10-22T00:18:45;24.00;;;15.07;;
21630;SDS011;10977;46.802;11.952;2022-10-22T00:21:10;20.42;;;14.38;;
21630;SDS011;10977;46.802;11.952;2022-10-22T00:23:38;18.17;;;14.40;;
21630;SDS011;10977;46.802;11.952;2022-10-22T00:26:05;22.35;;;15.23;;
21630;SDS011;10977;46.802;11.952;2022-10-22T00:28:31;21.02;;;14.48;;
21630;SDS011;10977;46.802;11.952;2022-10-22T00:30:57;23.58;;;14.63;;
21630;SDS011;10977;46.802;11.952;2022-10-22T00:33:24;20.00;;;13.45;;
21630;SDS011;10977;46.802;11.952;2022-10-22T00:35:50;25.42;;;13.98;;
21630;SDS011;10977;46.802;11.952;2022-10-22T00:38:16;18.25;;;14.00;;
21630;SDS011;10977;46.802;11.952;2022-10-22T00:40:41;21.70;;;14.55;;
21630;SDS011;10977;46.802;11.952;2022-10-22T00:43:10;17.58;;;13.77;;
21630;SDS011;10977;46.802;11.952;2022-10-22T00:45:36;19.35;;;14.48;;
21630;SDS011;10977;46.802;11.952;2022-10-22T00:48:08;20.83;;;14.93;;
21630;SDS011;10977;46.802;11.952;2022-10-22T00:53:23;19.70;;;14.82;;
21630;SDS011;10977;46.802;11.952;2022-10-22T00:55:55;17.75;;;13.40;;
21630;SDS011;10977;46.802;11.952;2022-10-22T00:58:22;19.02;;;13.55;;
21630;SDS011;10977;46.802;11.952;2022-10-22T01:00:50;22.08;;;14.70;;
21630;SDS011;10977;46.802;11.952;2022-10-22T01:03:16;18.90;;;14.50;;
21630;SDS011;10977;46.802;11.952;2022-10-22T01:06:00;21.38;;;14.18;;
21630;SDS011;10977;46.802;11.952;2022-10-22T01:14:17;19.48;;;13.75;;
21630;SDS011;10977;46.802;11.952;2022-10-22T01:17:06;19.55;;;13.75;;
21630;SDS011;10977;46.802;11.952;2022-10-22T01:22:12;21.08;;;13.95;;
21630;SDS011;10977;46.802;11.952;2022-10-22T01:24:47;22.73;;;14.25;;
21630;SDS011;10977;46.802;11.952;2022-10-22T01:27:24;20.75;;;14.13;;
21630;SDS011;10977;46.802;11.952;2022-10-22T01:29:59;21.67;;;14.45;;
21630;SDS011;10977;46.802;11.952;2022-10-22T01:32:30;19.73;;;14.18;;
21630;SDS011;10977;46.802;11.952;2022-10-22T01:35:01;20.35;;;14.23;;
21630;SDS011;10977;46.802;11.952;2022-10-22T01:37:31;25.38;;;14.27;;
21630;SDS011;10977;46.802;11.952;2022-10-22T01:40:00;21.27;;;14.18;;
21630;SDS011;10977;46.802;11.952;2022-10-22T01:42:27;21.65;;;14.77;;
21630;SDS011;10977;46.802;11.952;2022-10-22T01:44:52;21.38;;;14.15;;
21630;SDS011;10977;46.802;11.952;2022-10-22T01:50:10;16.67;;;12.93;;
21630;SDS011;10977;46.802;11.952;2022-10-22T01:53:01;21.05;;;13.85;;
21630;SDS011;10977;46.802;11.952;2022-10-22T01:58:47;20.13;;;14.55;;
21630;SDS011;10977;46.802;11.952;2022-10-22T02:06:58;18.88;;;14.23;;
21630;SDS011;10977;46.802;11.952;2022-10-22T02:09:27;21.00;;;15.40;;
21630;SDS011;10977;46.802;11.952;2022-10-22T02:11:55;23.60;;;14.90;;
21630;SDS011;10977;46.802;11.952;2022-10-22T02:14:23;19.33;;;13.57;;
21630;SDS011;10977;46.802;11.952;2022-10-22T02:16:52;23.25;;;14.57;;
21630;SDS011;10977;46.802;11.952;2022-10-22T02:19:21;23.05;;;14.27;;
21630;SDS011;10977;46.802;11.952;2022-10-22T02:21:49;22.27;;;13.82;;
21630;SDS011;10977;46.802;11.952;2022-10-22T02:24:15;19.83;;;14.13;;
21630;SDS011;10977;46.802;11.952;2022-10-22T02:26:54;22.90;;;14.73;;
21630;SDS011;10977;46.802;11.952;2022-10-22T02:29:38;20.33;;;14.35;;
21630;SDS011;10977;46.802;11.952;2022-10-22T02:32:08;23.15;;;14.07;;
21630;SDS011;10977;46.802;11.952;2022-10-22T02:34:35;15.35;;;12.73;;
21630;SDS011;10977;46.802;11.952;2022-10-22T02:37:01;20.15;;;14.80;;
21630;SDS011;10977;46.802;11.952;2022-10-22T02:39:28;20.33;;;13.93;;
21630;SDS011;10977;46.802;11.952;2022-10-22T02:41:55;20.23;;;13.07;;
21630;SDS011;10977;46.802;11.952;2022-10-22T02:44:22;18.98;;;14.50;;
21630;SDS011;10977;46.802;11.952;2022-10-22T02:46:48;20.13;;;14.20;;
21630;SDS011;10977;46.802;11.952;2022-10-22T02:49:14;21.90;;;14.45;;
21630;SDS011;10977;46.802;11.952;2022-10-22T02:51:39;17.42;;;13.77;;
21630;SDS011;10977;46.802;11.952;2022-10-22T02:54:05;20.75;;;13.35;;
21630;SDS011;10977;46.802;11.952;2022-10-22T02:56:30;22.90;;;14.02;;
21630;SDS011;10977;46.802;11.952;2022-10-22T02:58:56;17.65;;;12.82;;
21630;SDS011;10977;46.802;11.952;2022-10-22T03:01:21;18.05;;;13.50;;
21630;SDS011;10977;46.802;11.952;2022-10-22T03:03:47;20.33;;;13.80;;
21630;SDS011;10977;46.802;11.952;2022-10-22T03:06:13;16.33;;;13.23;;
21630;SDS011;10977;46.802;11.952;2022-10-22T03:08:38;17.80;;;13.25;;
21630;SDS011;10977;46.802;11.952;2022-10-22T03:11:03;18.63;;;13.88;;
21630;SDS011;10977;46.802;11.952;2022-10-22T03:13:29;20.85;;;14.50;;
21630;SDS011;10977;46.802;11.952;2022-10-22T03:15:54;20.02;;;13.80;;
21630;SDS011;10977;46.802;11.952;2022-10-22T03:18:19;19.45;;;12.63;;
21630;SDS011;10977;46.802;11.952;2022-10-22T03:20:45;21.42;;;14.43;;
21630;SDS011;10977;46.802;11.952;2022-10-22T03:23:11;58.22;;;16.70;;
21630;SDS011;10977;46.802;11.952;2022-10-22T03:25:40;18.38;;;13.70;;
21630;SDS011;10977;46.802;11.952;2022-10-22T03:28:08;21.88;;;14.30;;
21630;SDS011;10977;46.802;11.952;2022-10-22T03:30:35;21.65;;;14.13;;
21630;SDS011;10977;46.802;11.952;2022-10-22T03:33:00;16.27;;;12.88;;
21630;SDS011;10977;46.802;11.952;2022-10-22T03:35:26;19.30;;;12.45;;
21630;SDS011;10977;46.802;11.952;2022-10-22T03:37:51;17.15;;;13.10;;
21630;SDS011;10977;46.802;11.952;2022-10-22T03:40:18;17.67;;;12.50;;
21630;SDS011;10977;46.802;11.952;2022-10-22T03:42:44;23.40;;;13.23;;
21630;SDS011;10977;46.802;11.952;2022-10-22T03:45:09;19.67;;;13.02;;
21630;SDS011;10977;46.802;11.952;2022-10-22T03:47:35;20.10;;;13.40;;
21630;SDS011;10977;46.802;11.952;2022-10-22T03:50:01;17.10;;;13.02;;
21630;SDS011;10977;46.802;11.952;2022-10-22T03:52:26;16.90;;;12.50;;
21630;SDS011;10977;46.802;11.952;2022-10-22T03:54:52;19.45;;;13.55;;
21630;SDS011;10977;46.802;11.952;2022-10-22T03:57:17;21.35;;;13.60;;
21630;SDS011;10977;46.802;11.952;2022-10-22T03:59:43;17.30;;;13.13;;
21630;SDS011;10977;46.802;11.952;2022-10-22T04:02:10;17.27;;;12.60;;
21630;SDS011;10977;46.802;11.952;2022-10-22T04:04:37;16.83;;;13.23;;
21630;SDS011;10977;46.802;11.952;2022-10-22T04:07:03;18.17;;;13.75;;
21630;SDS011;10977;46.802;11.952;2022-10-22T04:09:30;19.33;;;13.32;;
21630;SDS011;10977;46.802;11.952;2022-10-22T04:11:56;16.48;;;12.60;;
21630;SDS011;10977;46.802;11.952;2022-10-22T04:14:22;16.58;;;13.15;;
21630;SDS011;10977;46.802;11.952;2022-10-22T04:16:48;16.67;;;11.88;;
21630;SDS011;10977;46.802;11.952;2022-10-22T04:19:13;14.75;;;12.20;;
21630;SDS011;10977;46.802;11.952;2022-10-22T04:21:38;14.20;;;11.40;;
21630;SDS011;10977;46.802;11.952;2022-10-22T04:24:04;22.23;;;12.65;;
21630;SDS011;10977;46.802;11.952;2022-10-22T04:26:29;15.07;;;11.75;;
21630;SDS011;10977;46.802;11.952;2022-10-22T04:28:54;14.65;;;11.45;;
21630;SDS011;10977;46.802;11.952;2022-10-22T04:31:21;13.52;;;10.50;;
21630;SDS011;10977;46.802;11.952;2022-10-22T04:33:54;13.05;;;10.25;;
21630;SDS011;10977;46.802;11.952;2022-10-22T04:36:21;11.25;;;10.00;;
21630;SDS011;10977;46.802;11.952;2022-10-22T04:38:51;10.75;;;9.57;;
21630;SDS011;10977;46.802;11.952;2022-10-22T04:41:19;12.93;;;10.98;;
21630;SDS011;10977;46.802;11.952;2022-10-22T04:43:46;13.25;;;11.40;;
21630;SDS011;10977;46.802;11.952;2022-10-22T04:46:13;12.00;;;10.77;;
21630;SDS011;10977;46.802;11.952;2022-10-22T04:48:40;13.40;;;11.45;;
21630;SDS011;10977;46.802;11.952;2022-10-22T04:51:07;17.67;;;11.15;;
21630;SDS011;10977;46.802;11.952;2022-10-22T04:53:34;11.80;;;9.77;;
21630;SDS011;10977;46.802;11.952;2022-10-22T04:58:32;11.90;;;10.07;;
21630;SDS011;10977;46.802;11.952;2022-10-22T05:00:58;10.63;;;9.40;;
21630;SDS011;10977;46.802;11.952;2022-10-22T05:03:23;17.83;;;10.25;;
21630;SDS011;10977;46.802;11.952;2022-10-22T05:05:49;11.65;;;9.07;;
21630;SDS011;10977;46.802;11.952;2022-10-22T05:08:14;9.60;;;8.43;;
21630;SDS011;10977;46.802;11.952;2022-10-22T05:10:40;9.57;;;8.57;;
21630;SDS011;10977;46.802;11.952;2022-10-22T05:13:05;9.27;;;8.10;;
21630;SDS011;10977;46.802;11.952;2022-10-22T05:15:31;10.18;;;7.65;;
21630;SDS011;10977;46.802;11.952;2022-10-22T05:17:57;9.95;;;7.80;;
21630;SDS011;10977;46.802;11.952;2022-10-22T05:20:23;9.57;;;7.30;;
21630;SDS011;10977;46.802;11.952;2022-10-22T05:22:48;8.23;;;7.43;;
21630;SDS011;10977;46.802;11.952;2022-10-22T05:25:13;10.10;;;7.07;;
21630;SDS011;10977;46.802;11.952;2022-10-22T05:27:39;7.90;;;6.88;;
21630;SDS011;10977;46.802;11.952;2022-10-22T05:30:04;7.93;;;6.90;;
21630;SDS011;10977;46.802;11.952;2022-10-22T05:32:30;8.93;;;6.85;;
21630;SDS011;10977;46.802;11.952;2022-10-22T05:34:55;9.68;;;6.97;;
21630;SDS011;10977;46.802;11.952;2022-10-22T05:37:21;9.52;;;7.90;;
21630;SDS011;10977;46.802;11.952;2022-10-22T05:39:46;9.57;;;8.50;;
21630;SDS011;10977;46.802;11.952;2022-10-22T05:42:12;9.10;;;8.02;;
21630;SDS011;10977;46.802;11.952;2022-10-22T05:44:37;9.98;;;8.55;;
21630;SDS011;10977;46.802;11.952;2022-10-22T05:47:04;9.65;;;7.95;;
21630;SDS011;10977;46.802;11.952;2022-10-22T05:49:30;9.48;;;8.07;;
21630;SDS011;10977;46.802;11.952;2022-10-22T05:51:55;10.95;;;8.10;;
21630;SDS011;10977;46.802;11.952;2022-10-22T05:54:21;12.40;;;8.80;;
21630;SDS011;10977;46.802;11.952;2022-10-22T05:56:46;10.02;;;8.90;;
21630;SDS011;10977;46.802;11.952;2022-10-22T05:59:12;9.57;;;7.70;;
21630;SDS011;10977;46.802;11.952;2022-10-22T06:01:38;11.18;;;7.47;;
21630;SDS011;10977;46.802;11.952;2022-10-22T06:04:05;9.07;;;7.75;;
21630;SDS011;10977;46.802;11.952;2022-10-22T06:06:33;8.57;;;7.50;;
21630;SDS011;10977;46.802;11.952;2022-10-22T06:09:30;8.02;;;7.10;;
21630;SDS011;10977;46.802;11.952;2022-10-22T06:11:56;8.77;;;7.47;;
21630;SDS011;10977;46.802;11.952;2022-10-22T06:14:23;8.63;;;7.05;;
21630;SDS011;10977;46.802;11.952;2022-10-22T06:16:49;8.95;;;7.53;;
21630;SDS011;10977;46.802;11.952;2022-10-22T06:19:15;10.27;;;8.55;;
21630;SDS011;10977;46.802;11.952;2022-10-22T06:21:42;11.10;;;9.55;;
21630;SDS011;10977;46.802;11.952;2022-10-22T06:24:08;11.55;;;9.05;;
21630;SDS011;10977;46.802;11.952;2022-10-22T06:26:35;10.80;;;8.75;;
21630;SDS011;10977;46.802;11.952;2022-10-22T06:29:01;10.43;;;8.20;;
21630;SDS011;10977;46.802;11.952;2022-10-22T06:31:27;11.80;;;8.02;;
21630;SDS011;10977;46.802;11.952;2022-10-22T06:33:53;10.07;;;7.63;;
21630;SDS011;10977;46.802;11.952;2022-10-22T06:36:21;7.78;;;6.90;;
21630;SDS011;10977;46.802;11.952;2022-10-22T06:38:52;11.65;;;7.82;;
21630;SDS011;10977;46.802;11.952;2022-10-22T06:41:18;8.80;;;7.30;;
21630;SDS011;10977;46.802;11.952;2022-10-22T06:43:44;9.70;;;7.10;;
21630;SDS011;10977;46.802;11.952;2022-10-22T06:46:11;8.18;;;7.30;;
21630;SDS011;10977;46.802;11.952;2022-10-22T06:48:38;9.10;;;7.72;;
21630;SDS011;10977;46.802;11.952;2022-10-22T06:51:08;9.48;;;7.63;;
21630;SDS011;10977;46.802;11.952;2022-10-22T06:53:35;9.10;;;6.88;;
21630;SDS011;10977;46.802;11.952;2022-10-22T06:56:05;8.25;;;7.30;;
21630;SDS011;10977;46.802;11.952;2022-10-22T06:58:34;9.02;;;7.43;;
21630;SDS011;10977;46.802;11.952;2022-10-22T07:01:05;9.85;;;7.88;;
21630;SDS011;10977;46.802;11.952;2022-10-22T07:03:31;8.70;;;7.35;;
21630;SDS011;10977;46.802;11.952;2022-10-22T07:05:58;10.55;;;7.93;;
21630;SDS011;10977;46.802;11.952;2022-10-22T07:08:25;9.90;;;7.50;;
21630;SDS011;10977;46.802;11.952;2022-10-22T07:10:50;10.80;;;7.90;;
21630;SDS011;10977;46.802;11.952;2022-10-22T07:13:16;8.82;;;7.80;;
21630;SDS011;10977;46.802;11.952;2022-10-22T07:15:41;10.23;;;7.03;;
21630;SDS011;10977;46.802;11.952;2022-10-22T07:18:06;9.45;;;8.05;;
21630;SDS011;10977;46.802;11.952;2022-10-22T07:20:31;10.40;;;8.23;;
21630;SDS011;10977;46.802;11.952;2022-10-22T07:22:57;11.32;;;8.48;;
21630;SDS011;10977;46.802;11.952;2022-10-22T07:25:22;8.70;;;7.80;;
21630;SDS011;10977;46.802;11.952;2022-10-22T07:27:47;11.68;;;7.80;;
21630;SDS011;10977;46.802;11.952;2022-10-22T07:30:13;9.65;;;7.80;;
21630;SDS011;10977;46.802;11.952;2022-10-22T07:32:38;8.73;;;7.35;;
21630;SDS011;10977;46.802;11.952;2022-10-22T07:35:04;7.50;;;6.63;;
21630;SDS011;10977;46.802;11.952;2022-10-22T07:37:29;10.20;;;6.53;;
21630;SDS011;10977;46.802;11.952;2022-10-22T07:39:55;11.32;;;8.15;;
21630;SDS011;10977;46.802;11.952;2022-10-22T07:42:20;8.95;;;6.30;;
21630;SDS011;10977;46.802;11.952;2022-10-22T07:44:45;6.15;;;5.20;;
21630;SDS011;10977;46.802;11.952;2022-10-22T07:47:11;8.98;;;6.57;;
21630;SDS011;10977;46.802;11.952;2022-10-22T07:49:36;6.15;;;4.97;;
21630;SDS011;10977;46.802;11.952;2022-10-22T07:52:01;5.22;;;4.15;;
21630;SDS011;10977;46.802;11.952;2022-10-22T07:54:27;9.55;;;4.97;;
21630;SDS011;10977;46.802;11.952;2022-10-22T07:56:52;8.00;;;4.47;;
21630;SDS011;10977;46.802;11.952;2022-10-22T07:59:17;4.72;;;3.83;;
21630;SDS011;10977;46.802;11.952;2022-10-22T08:01:43;5.07;;;4.03;;
21630;SDS011;10977;46.802;11.952;2022-10-22T08:04:08;5.82;;;3.92;;
21630;SDS011;10977;46.802;11.952;2022-10-22T08:06:35;4.80;;;3.40;;
21630;SDS011;10977;46.802;11.952;2022-10-22T08:09:01;3.67;;;2.97;;
21630;SDS011;10977;46.802;11.952;2022-10-22T08:11:27;3.47;;;2.80;;
21630;SDS011;10977;46.802;11.952;2022-10-22T08:13:52;20.00;;;15.38;;
21630;SDS011;10977;46.802;11.952;2022-10-22T08:16:17;11.75;;;7.47;;
21630;SDS011;10977;46.802;11.952;2022-10-22T08:18:43;13.82;;;6.90;;
21630;SDS011;10977;46.802;11.952;2022-10-22T08:21:09;7.65;;;5.90;;
21630;SDS011;10977;46.802;11.952;2022-10-22T08:23:35;6.00;;;4.53;;
21630;SDS011;10977;46.802;11.952;2022-10-22T08:26:01;4.43;;;3.88;;
21630;SDS011;10977;46.802;11.952;2022-10-22T08:28:27;4.72;;;3.60;;
21630;SDS011;10977;46.802;11.952;2022-10-22T08:30:53;4.40;;;3.38;;
21630;SDS011;10977;46.802;11.952;2022-10-22T08:33:20;4.95;;;3.30;;
21630;SDS011;10977;46.802;11.952;2022-10-22T08:35:51;3.63;;;2.97;;
21630;SDS011;10977;46.802;11.952;2022-10-22T08:38:17;3.75;;;2.90;;
21630;SDS011;10977;46.802;11.952;2022-10-22T08:40:43;4.55;;;2.72;;
21630;SDS011;10977;46.802;11.952;2022-10-22T08:46:00;6.85;;;3.97;;
21630;SDS011;10977;46.802;11.952;2022-10-22T08:51:22;5.88;;;3.03;;
21630;SDS011;10977;46.802;11.952;2022-10-22T08:56:42;5.28;;;3.67;;
21630;SDS011;10977;46.802;11.952;2022-10-22T09:01:47;5.57;;;3.25;;
21630;SDS011;10977;46.802;11.952;2022-10-22T09:04:21;4.80;;;3.22;;
21630;SDS011;10977;46.802;11.952;2022-10-22T09:06:52;5.28;;;2.80;;
21630;SDS011;10977;46.802;11.952;2022-10-22T09:09:22;4.93;;;2.50;;
21630;SDS011;10977;46.802;11.952;2022-10-22T09:11:51;3.22;;;2.35;;
21630;SDS011;10977;46.802;11.952;2022-10-22T09:14:22;6.32;;;3.55;;
21630;SDS011;10977;46.802;11.952;2022-10-22T09:17:02;4.35;;;2.95;;
21630;SDS011;10977;46.802;11.952;2022-10-22T09:25:38;4.82;;;3.05;;
21630;SDS011;10977;46.802;11.952;2022-10-22T09:27:49;3.88;;;2.53;;
21630;SDS011;10977;46.802;11.952;2022-10-22T09:30:17;3.78;;;2.60;;
21630;SDS011;10977;46.802;11.952;2022-10-22T09:32:44;5.00;;;2.78;;
21630;SDS011;10977;46.802;11.952;2022-10-22T09:35:11;5.38;;;4.22;;
21630;SDS011;10977;46.802;11.952;2022-10-22T09:37:46;9.75;;;7.38;;
21630;SDS011;10977;46.802;11.952;2022-10-22T09:40:14;11.25;;;6.88;;
21630;SDS011;10977;46.802;11.952;2022-10-22T09:42:41;10.40;;;6.20;;
21630;SDS011;10977;46.802;11.952;2022-10-22T09:45:14;9.57;;;5.22;;
21630;SDS011;10977;46.802;11.952;2022-10-22T09:47:43;6.65;;;4.65;;
21630;SDS011;10977;46.802;11.952;2022-10-22T09:53:34;9.70;;;4.45;;
21630;SDS011;10977;46.802;11.952;2022-10-22T09:56:07;7.35;;;5.10;;
21630;SDS011;10977;46.802;11.952;2022-10-22T09:58:41;4.80;;;3.97;;
21630;SDS011;10977;46.802;11.952;2022-10-22T10:01:14;6.30;;;3.80;;
21630;SDS011;10977;46.802;11.952;2022-10-22T10:03:41;4.97;;;3.75;;
21630;SDS011;10977;46.802;11.952;2022-10-22T10:06:06;7.15;;;4.07;;
21630;SDS011;10977;46.802;11.952;2022-10-22T10:08:32;6.90;;;4.53;;
21630;SDS011;10977;46.802;11.952;2022-10-22T10:11:09;4.60;;;3.55;;
21630;SDS011;10977;46.802;11.952;2022-10-22T10:13:45;8.35;;;4.28;;
21630;SDS011;10977;46.802;11.952;2022-10-22T10:16:26;4.50;;;3.88;;
21630;SDS011;10977;46.802;11.952;2022-10-22T10:29:54;6.15;;;3.97;;
21630;SDS011;10977;46.802;11.952;2022-10-22T10:35:03;7.78;;;5.68;;
21630;SDS011;10977;46.802;11.952;2022-10-22T10:40:47;5.82;;;4.55;;
21630;SDS011;10977;46.802;11.952;2022-10-22T10:45:52;4.47;;;4.07;;
21630;SDS011;10977;46.802;11.952;2022-10-22T10:48:44;8.43;;;5.13;;
21630;SDS011;10977;46.802;11.952;2022-10-22T11:04:56;4.13;;;3.50;;
21630;SDS011;10977;46.802;11.952;2022-10-22T11:10:46;3.97;;;3.17;;
21630;SDS011;10977;46.802;11.952;2022-10-22T11:16:09;7.72;;;3.78;;
21630;SDS011;10977;46.802;11.952;2022-10-22T11:18:45;4.78;;;3.67;;
21630;SDS011;10977;46.802;11.952;2022-10-22T11:21:38;4.72;;;3.88;;
21630;SDS011;10977;46.802;11.952;2022-10-22T11:29:36;4.88;;;4.20;;
21630;SDS011;10977;46.802;11.952;2022-10-22T11:32:14;5.85;;;4.28;;
21630;SDS011;10977;46.802;11.952;2022-10-22T11:34:49;5.35;;;4.32;;
21630;SDS011;10977;46.802;11.952;2022-10-22T11:37:18;5.07;;;4.10;;
21630;SDS011;10977;46.802;11.952;2022-10-22T11:39:58;6.80;;;4.22;;
21630;SDS011;10977;46.802;11.952;2022-10-22T11:42:35;4.88;;;4.10;;
21630;SDS011;10977;46.802;11.952;2022-10-22T11:50:21;6.32;;;4.10;;
21630;SDS011;10977;46.802;11.952;2022-10-22T11:53:01;5.40;;;4.90;;
21630;SDS011;10977;46.802;11.952;2022-10-22T11:55:30;6.38;;;4.80;;
21630;SDS011;10977;46.802;11.952;2022-10-22T11:57:57;6.30;;;4.38;;
21630;SDS011;10977;46.802;11.952;2022-10-22T12:00:40;6.72;;;4.45;;
21630;SDS011;10977;46.802;11.952;2022-10-22T12:08:37;4.55;;;3.92;;
21630;SDS011;10977;46.802;11.952;2022-10-22T12:16:35;4.85;;;3.72;;
21630;SDS011;10977;46.802;11.952;2022-10-22T12:19:04;5.38;;;4.00;;
21630;SDS011;10977;46.802;11.952;2022-10-22T12:21:38;5.82;;;4.20;;
21630;SDS011;10977;46.802;11.952;2022-10-22T12:24:05;4.25;;;3.85;;
21630;SDS011;10977;46.802;11.952;2022-10-22T12:26:31;4.60;;;3.85;;
21630;SDS011;10977;46.802;11.952;2022-10-22T12:29:00;4.10;;;3.50;;
21630;SDS011;10977;46.802;11.952;2022-10-22T12:31:34;3.95;;;3.53;;
21630;SDS011;10977;46.802;11.952;2022-10-22T12:34:02;3.72;;;3.20;;
21630;SDS011;10977;46.802;11.952;2022-10-22T12:36:32;3.97;;;3.22;;
21630;SDS011;10977;46.802;11.952;2022-10-22T12:39:03;5.95;;;3.22;;
21630;SDS011;10977;46.802;11.952;2022-10-22T12:41:35;5.78;;;3.80;;
21630;SDS011;10977;46.802;11.952;2022-10-22T12:44:02;3.60;;;3.15;;
21630;SDS011;10977;46.802;11.952;2022-10-22T12:46:29;5.22;;;3.75;;
21630;SDS011;10977;46.802;11.952;2022-10-22T12:48:58;4.03;;;3.40;;
21630;SDS011;10977;46.802;11.952;2022-10-22T12:51:26;3.60;;;3.13;;
21630;SDS011;10977;46.802;11.952;2022-10-22T12:53:53;3.25;;;2.90;;
21630;SDS011;10977;46.802;11.952;2022-10-22T12:56:22;3.58;;;3.28;;
21630;SDS011;10977;46.802;11.952;2022-10-22T12:58:54;3.40;;;2.78;;
21630;SDS011;10977;46.802;11.952;2022-10-22T13:01:23;3.47;;;2.70;;
21630;SDS011;10977;46.802;11.952;2022-10-22T13:04:02;3.72;;;2.83;;
21630;SDS011;10977;46.802;11.952;2022-10-22T13:06:42;2.35;;;2.08;;
21630;SDS011;10977;46.802;11.952;2022-10-22T13:09:18;4.22;;;2.20;;
21630;SDS011;10977;46.802;11.952;2022-10-22T13:11:49;2.30;;;2.00;;
21630;SDS011;10977;46.802;11.952;2022-10-22T13:14:29;2.75;;;2.05;;
21630;SDS011;10977;46.802;11.952;2022-10-22T13:19:35;2.33;;;2.13;;
21630;SDS011;10977;46.802;11.952;2022-10-22T13:24:54;3.22;;;2.65;;
21630;SDS011;10977;46.802;11.952;2022-10-22T13:27:21;3.17;;;2.75;;
21630;SDS011;10977;46.802;11.952;2022-10-22T13:29:47;3.17;;;2.88;;
21630;SDS011;10977;46.802;11.952;2022-10-22T13:32:47;4.93;;;2.55;;
21630;SDS011;10977;46.802;11.952;2022-10-22T13:35:05;3.70;;;2.22;;
21630;SDS011;10977;46.802;11.952;2022-10-22T13:37:31;2.50;;;2.30;;
21630;SDS011;10977;46.802;11.952;2022-10-22T13:39:58;2.35;;;1.25;;
21630;SDS011;10977;46.802;11.952;2022-10-22T13:42:23;1.30;;;1.20;;
21630;SDS011;10977;46.802;11.952;2022-10-22T13:44:49;2.05;;;1.30;;
21630;SDS011;10977;46.802;11.952;2022-10-22T13:47:23;1.67;;;1.17;;
21630;SDS011;10977;46.802;11.952;2022-10-22T13:49:50;1.00;;;0.90;;
21630;SDS011;10977;46.802;11.952;2022-10-22T13:52:21;0.80;;;0.75;;
21630;SDS011;10977;46.802;11.952;2022-10-22T13:54:54;0.70;;;0.70;;
21630;SDS011;10977;46.802;11.952;2022-10-22T13:57:19;0.70;;;0.70;;
21630;SDS011;10977;46.802;11.952;2022-10-22T13:59:44;0.57;;;0.52;;
21630;SDS011;10977;46.802;11.952;2022-10-22T14:02:10;1.48;;;0.75;;
21630;SDS011;10977;46.802;11.952;2022-10-22T14:04:38;0.90;;;0.60;;
21630;SDS011;10977;46.802;11.952;2022-10-22T14:07:14;0.80;;;0.77;;
21630;SDS011;10977;46.802;11.952;2022-10-22T14:09:41;1.90;;;0.70;;
21630;SDS011;10977;46.802;11.952;2022-10-22T14:12:11;0.77;;;0.70;;
21630;SDS011;10977;46.802;11.952;2022-10-22T14:14:38;0.95;;;0.80;;
21630;SDS011;10977;46.802;11.952;2022-10-22T14:17:04;1.45;;;0.80;;
21630;SDS011;10977;46.802;11.952;2022-10-22T14:19:30;0.90;;;0.80;;
21630;SDS011;10977;46.802;11.952;2022-10-22T14:21:56;0.93;;;0.85;;
21630;SDS011;10977;46.802;11.952;2022-10-22T14:24:21;1.20;;;1.10;;
21630;SDS011;10977;46.802;11.952;2022-10-22T14:26:47;0.90;;;0.90;;
21630;SDS011;10977;46.802;11.952;2022-10-22T14:29:12;1.10;;;1.00;;
21630;SDS011;10977;46.802;11.952;2022-10-22T14:31:38;1.83;;;0.98;;
21630;SDS011;10977;46.802;11.952;2022-10-22T14:34:04;1.33;;;1.05;;
21630;SDS011;10977;46.802;11.952;2022-10-22T14:36:30;1.02;;;0.90;;
21630;SDS011;10977;46.802;11.952;2022-10-22T14:38:55;1.75;;;1.00;;
21630;SDS011;10977;46.802;11.952;2022-10-22T14:41:21;1.02;;;0.90;;
21630;SDS011;10977;46.802;11.952;2022-10-22T14:43:49;0.80;;;0.80;;
21630;SDS011;10977;46.802;11.952;2022-10-22T14:46:15;1.00;;;0.90;;
21630;SDS011;10977;46.802;11.952;2022-10-22T14:48:42;1.23;;;1.10;;
21630;SDS011;10977;46.802;11.952;2022-10-22T14:51:17;1.45;;;0.93;;
21630;SDS011;10977;46.802;11.952;2022-10-22T14:53:44;2.05;;;1.05;;
21630;SDS011;10977;46.802;11.952;2022-10-22T14:56:10;1.23;;;1.10;;
21630;SDS011;10977;46.802;11.952;2022-10-22T14:58:38;1.65;;;1.40;;
21630;SDS011;10977;46.802;11.952;2022-10-22T15:01:04;1.75;;;1.52;;
21630;SDS011;10977;46.802;11.952;2022-10-22T15:03:29;1.58;;;1.20;;
21630;SDS011;10977;46.802;11.952;2022-10-22T15:05:55;2.13;;;1.65;;
21630;SDS011;10977;46.802;11.952;2022-10-22T15:08:21;6.03;;;2.40;;
21630;SDS011;10977;46.802;11.952;2022-10-22T15:10:56;4.47;;;2.70;;
21630;SDS011;10977;46.802;11.952;2022-10-22T15:13:23;6.18;;;5.13;;
21630;SDS011;10977;46.802;11.952;2022-10-22T15:15:50;4.30;;;3.42;;
21630;SDS011;10977;46.802;11.952;2022-10-22T15:18:15;2.92;;;2.42;;
21630;SDS011;10977;46.802;11.952;2022-10-22T15:20:40;4.40;;;3.00;;
21630;SDS011;10977;46.802;11.952;2022-10-22T15:23:06;2.42;;;1.90;;
21630;SDS011;10977;46.802;11.952;2022-10-22T15:25:31;4.72;;;2.58;;
21630;SDS011;10977;46.802;11.952;2022-10-22T15:27:57;3.50;;;2.92;;
21630;SDS011;10977;46.802;11.952;2022-10-22T15:30:22;6.55;;;2.92;;
21630;SDS011;10977;46.802;11.952;2022-10-22T15:32:47;2.95;;;2.53;;
21630;SDS011;10977;46.802;11.952;2022-10-22T15:35:13;5.78;;;2.95;;
21630;SDS011;10977;46.802;11.952;2022-10-22T15:37:38;2.60;;;2.00;;
21630;SDS011;10977;46.802;11.952;2022-10-22T15:40:04;1.92;;;1.60;;
21630;SDS011;10977;46.802;11.952;2022-10-22T15:42:31;2.55;;;1.10;;
21630;SDS011;10977;46.802;11.952;2022-10-22T15:44:57;1.30;;;1.20;;
21630;SDS011;10977;46.802;11.952;2022-10-22T15:47:23;2.42;;;1.30;;
21630;SDS011;10977;46.802;11.952;2022-10-22T15:49:52;4.40;;;1.23;;
21630;SDS011;10977;46.802;11.952;2022-10-22T15:52:17;1.23;;;1.05;;
21630;SDS011;10977;46.802;11.952;2022-10-22T15:54:43;1.65;;;1.20;;
21630;SDS011;10977;46.802;11.952;2022-10-22T15:57:08;2.97;;;1.25;;
21630;SDS011;10977;46.802;11.952;2022-10-22T15:59:34;2.58;;;1.13;;
21630;SDS011;10977;46.802;11.952;2022-10-22T16:02:00;3.03;;;1.30;;
21630;SDS011;10977;46.802;11.952;2022-10-22T16:04:25;1.58;;;1.40;;
21630;SDS011;10977;46.802;11.952;2022-10-22T16:06:51;1.92;;;1.67;;
21630;SDS011;10977;46.802;11.952;2022-10-22T16:09:18;2.42;;;1.90;;
21630;SDS011;10977;46.802;11.952;2022-10-22T16:11:46;2.88;;;2.13;;
21630;SDS011;10977;46.802;11.952;2022-10-22T16:14:12;2.33;;;1.90;;
21630;SDS011;10977;46.802;11.952;2022-10-22T16:16:41;2.22;;;1.77;;
21630;SDS011;10977;46.802;11.952;2022-10-22T16:19:11;2.47;;;1.90;;
21630;SDS011;10977;46.802;11.952;2022-10-22T16:21:38;2.10;;;1.60;;
21630;SDS011;10977;46.802;11.952;2022-10-22T16:24:04;1.88;;;1.63;;